sensor_id;sensor_type;location;lat;lon;timestamp;pressure;altitude;pressure_sealevel;temperature;humidity
20656;BME280;10487;53.320;8.672;2022-12-05T00:03:02;101750.19;;;2.28;64.45
20656;BME280;10487;53.320;8.672;2022-12-05T00:06:04;101743.19;;;2.27;64.54
20656;BME280;10487;53.320;8.672;2022-12-05T00:09:07;101744.06;;;2.28;64.40
20656;BME280;10487;53.320;8.672;2022-12-05T00:12:09;101733.53;;;2.28;64.57
20656;BME280;10487;53.320;8.672;2022-12-05T00:15:12;101744.09;;;2.26;64.82
20656;BME280;10487;53.320;8.672;2022-12-05T00:18:14;101737.03;;;2.28;64.52
20656;BME280;10487;53.320;8.672;2022-12-05T00:21:21;101734.41;;;2.28;64.70
20656;BME280;10487;53.320;8.672;2022-12-05T00:24:24;101735.28;;;2.27;64.65
20656;BME280;10487;53.320;8.672;2022-12-05T00:27:25;101733.53;;;2.28;64.40
20656;BME280;10487;53.320;8.672;2022-12-05T00:30:27;101735.28;;;2.29;64.70
20656;BME280;10487;53.320;8.672;2022-12-05T00:33:28;101737.09;;;2.27;64.54
20656;BME280;10487;53.320;8.672;2022-12-05T00:36:32;101728.31;;;2.25;64.60
20656;BME280;10487;53.320;8.672;2022-12-05T00:39:34;101723.06;;;2.25;64.38
20656;BME280;10487;53.320;8.672;2022-12-05T00:42:35;101723.94;;;2.25;64.72
20656;BME280;10487;53.320;8.672;2022-12-05T00:45:37;101722.22;;;2.24;64.79
20656;BME280;10487;53.320;8.672;2022-12-05T00:48:39;101731.81;;;2.25;64.78
20656;BME280;10487;53.320;8.672;2022-12-05T00:51:42;101733.59;;;2.25;64.66
20656;BME280;10487;53.320;8.672;2022-12-05T00:54:43;101737.16;;;2.24;64.48
20656;BME280;10487;53.320;8.672;2022-12-05T00:57:45;101734.53;;;2.22;64.81
20656;BME280;10487;53.320;8.672;2022-12-05T01:00:46;101732.81;;;2.21;64.70
20656;BME280;10487;53.320;8.672;2022-12-05T01:03:52;101735.47;;;2.19;64.52
20656;BME280;10487;53.320;8.672;2022-12-05T01:06:55;101732.84;;;2.19;64.59
20656;BME280;10487;53.320;8.672;2022-12-05T01:09:57;101727.56;;;2.19;64.40
20656;BME280;10487;53.320;8.672;2022-12-05T01:12:59;101734.63;;;2.19;64.57
20656;BME280;10487;53.320;8.672;2022-12-05T01:16:01;101730.25;;;2.18;64.67
20656;BME280;10487;53.320;8.672;2022-12-05T01:19:25;101720.59;;;2.17;64.75
20656;BME280;10487;53.320;8.672;2022-12-05T01:22:27;101723.22;;;2.17;64.61
20656;BME280;10487;53.320;8.672;2022-12-05T01:25:29;101736.38;;;2.18;64.67
20656;BME280;10487;53.320;8.672;2022-12-05T01:28:30;101734.63;;;2.19;64.76
20656;BME280;10487;53.320;8.672;2022-12-05T01:31:34;101730.19;;;2.19;64.56
20656;BME280;10487;53.320;8.672;2022-12-05T01:34:36;101723.16;;;2.20;64.74
20656;BME280;10487;53.320;8.672;2022-12-05T01:37:38;101717.00;;;2.21;64.91
20656;BME280;10487;53.320;8.672;2022-12-05T01:40:40;101722.22;;;2.24;64.75
20656;BME280;10487;53.320;8.672;2022-12-05T01:44:07;101722.22;;;2.24;64.75
20656;BME280;10487;53.320;8.672;2022-12-05T01:47:29;101724.00;;;2.22;64.50
20656;BME280;10487;53.320;8.672;2022-12-05T01:50:32;101731.06;;;2.22;64.96
20656;BME280;10487;53.320;8.672;2022-12-05T01:53:35;101716.13;;;2.21;64.63
20656;BME280;10487;53.320;8.672;2022-12-05T01:56:39;101716.13;;;2.21;64.88
20656;BME280;10487;53.320;8.672;2022-12-05T01:59:54;101719.66;;;2.21;64.78
20656;BME280;10487;53.320;8.672;2022-12-05T02:03:00;101713.50;;;2.21;64.73
20656;BME280;10487;53.320;8.672;2022-12-05T02:06:03;101710.00;;;2.20;64.71
20656;BME280;10487;53.320;8.672;2022-12-05T02:09:05;101714.38;;;2.21;64.98
20656;BME280;10487;53.320;8.672;2022-12-05T02:12:07;101716.09;;;2.22;64.67
20656;BME280;10487;53.320;8.672;2022-12-05T02:15:25;101708.19;;;2.22;64.55
20656;BME280;10487;53.320;8.672;2022-12-05T02:32:14;101705.56;;;2.22;65.08
20656;BME280;10487;53.320;8.672;2022-12-05T02:35:38;101710.88;;;2.21;64.82
20656;BME280;10487;53.320;8.672;2022-12-05T02:38:49;101704.78;;;2.18;64.71
20656;BME280;10487;53.320;8.672;2022-12-05T02:42:08;101706.53;;;2.18;64.77
20656;BME280;10487;53.320;8.672;2022-12-05T02:45:13;101713.56;;;2.19;64.93
20656;BME280;10487;53.320;8.672;2022-12-05T02:48:17;101709.13;;;2.19;65.03
20656;BME280;10487;53.320;8.672;2022-12-05T02:51:21;101706.50;;;2.19;64.77
20656;BME280;10487;53.320;8.672;2022-12-05T02:54:31;101707.38;;;2.20;64.72
20656;BME280;10487;53.320;8.672;2022-12-05T02:57:35;101705.59;;;2.21;64.99
20656;BME280;10487;53.320;8.672;2022-12-05T03:00:38;101704.72;;;2.20;65.21
20656;BME280;10487;53.320;8.672;2022-12-05T03:03:40;101701.22;;;2.21;64.87
20656;BME280;10487;53.320;8.672;2022-12-05T03:06:48;101697.66;;;2.22;65.05
20656;BME280;10487;53.320;8.672;2022-12-05T03:09:55;101694.94;;;2.27;65.16
20656;BME280;10487;53.320;8.672;2022-12-05T03:13:04;101684.34;;;2.28;64.92
20656;BME280;10487;53.320;8.672;2022-12-05T03:16:13;101690.44;;;2.30;65.15
20656;BME280;10487;53.320;8.672;2022-12-05T03:19:40;101691.31;;;2.31;64.64
20656;BME280;10487;53.320;8.672;2022-12-05T03:22:53;101684.31;;;2.30;65.04
20656;BME280;10487;53.320;8.672;2022-12-05T03:35:28;101690.31;;;2.36;65.13
20656;BME280;10487;53.320;8.672;2022-12-05T03:38:49;101695.56;;;2.36;65.05
20656;BME280;10487;53.320;8.672;2022-12-05T03:42:00;101691.19;;;2.37;65.19
20656;BME280;10487;53.320;8.672;2022-12-05T03:45:14;101687.66;;;2.36;65.10
20656;BME280;10487;53.320;8.672;2022-12-05T03:48:54;101692.88;;;2.38;64.89
20656;BME280;10487;53.320;8.672;2022-12-05T03:55:08;101683.22;;;2.38;65.11
20656;BME280;10487;53.320;8.672;2022-12-05T03:58:16;101681.41;;;2.40;65.00
20656;BME280;10487;53.320;8.672;2022-12-05T04:01:21;101684.03;;;2.40;65.18
20656;BME280;10487;53.320;8.672;2022-12-05T04:04:30;101682.22;;;2.42;65.23
20656;BME280;10487;53.320;8.672;2022-12-05T04:07:37;101685.75;;;2.43;64.87
20656;BME280;10487;53.320;8.672;2022-12-05T04:10:40;101688.31;;;2.44;64.95
20656;BME280;10487;53.320;8.672;2022-12-05T04:14:12;101685.66;;;2.46;65.13
20656;BME280;10487;53.320;8.672;2022-12-05T04:20:30;101688.25;;;2.47;65.06
20656;BME280;10487;53.320;8.672;2022-12-05T04:23:52;101682.97;;;2.49;65.08
20656;BME280;10487;53.320;8.672;2022-12-05T04:30:18;101682.91;;;2.50;65.17
20656;BME280;10487;53.320;8.672;2022-12-05T04:36:59;101685.50;;;2.52;65.26
20656;BME280;10487;53.320;8.672;2022-12-05T04:40:10;101690.75;;;2.53;65.09
20656;BME280;10487;53.320;8.672;2022-12-05T04:43:15;101682.78;;;2.56;65.33
20656;BME280;10487;53.320;8.672;2022-12-05T04:46:18;101688.81;;;2.60;65.35
20656;BME280;10487;53.320;8.672;2022-12-05T04:49:25;101690.47;;;2.64;65.37
20656;BME280;10487;53.320;8.672;2022-12-05T04:52:27;101681.63;;;2.66;65.04
20656;BME280;10487;53.320;8.672;2022-12-05T04:55:32;101681.56;;;2.68;65.50
20656;BME280;10487;53.320;8.672;2022-12-05T04:58:36;101685.00;;;2.71;65.30
20656;BME280;10487;53.320;8.672;2022-12-05T05:01:47;101679.63;;;2.74;65.23
20656;BME280;10487;53.320;8.672;2022-12-05T05:04:54;101676.09;;;2.75;65.25
20656;BME280;10487;53.320;8.672;2022-12-05T05:07:58;101677.78;;;2.78;65.50
20656;BME280;10487;53.320;8.672;2022-12-05T05:11:05;101682.06;;;2.82;65.15
20656;BME280;10487;53.320;8.672;2022-12-05T05:14:11;101678.53;;;2.83;65.48
20656;BME280;10487;53.320;8.672;2022-12-05T05:17:12;101685.50;;;2.86;65.28
20656;BME280;10487;53.320;8.672;2022-12-05T05:20:14;101677.59;;;2.86;65.17
20656;BME280;10487;53.320;8.672;2022-12-05T05:23:24;101677.53;;;2.87;65.37
20656;BME280;10487;53.320;8.672;2022-12-05T05:26:27;101666.97;;;2.89;65.20
20656;BME280;10487;53.320;8.672;2022-12-05T05:29:29;101666.84;;;2.92;65.28
20656;BME280;10487;53.320;8.672;2022-12-05T05:32:33;101673.88;;;2.93;65.33
20656;BME280;10487;53.320;8.672;2022-12-05T05:35:35;101671.16;;;2.96;65.26
20656;BME280;10487;53.320;8.672;2022-12-05T05:38:48;101673.75;;;2.97;65.41
20656;BME280;10487;53.320;8.672;2022-12-05T05:41:50;101674.56;;;2.99;65.37
20656;BME280;10487;53.320;8.672;2022-12-05T05:44:52;101675.41;;;3.01;65.39
20656;BME280;10487;53.320;8.672;2022-12-05T05:47:53;101674.59;;;3.30;64.97
20656;BME280;10487;53.320;8.672;2022-12-05T05:50:58;101674.53;;;3.31;65.04
20656;BME280;10487;53.320;8.672;2022-12-05T05:53:59;101671.00;;;3.32;65.05
20656;BME280;10487;53.320;8.672;2022-12-05T05:57:01;101665.72;;;3.32;65.14
20656;BME280;10487;53.320;8.672;2022-12-05T06:00:05;101664.03;;;3.30;65.16
20656;BME280;10487;53.320;8.672;2022-12-05T06:03:06;101657.03;;;3.29;65.23
20656;BME280;10487;53.320;8.672;2022-12-05T06:06:10;101665.03;;;3.24;65.04
20656;BME280;10487;53.320;8.672;2022-12-05T06:09:12;101660.72;;;3.22;64.97
20656;BME280;10487;53.320;8.672;2022-12-05T06:12:14;101659.97;;;3.18;64.91
20656;BME280;10487;53.320;8.672;2022-12-05T06:15:15;101661.72;;;3.18;64.98
20656;BME280;10487;53.320;8.672;2022-12-05T06:18:17;101662.59;;;3.18;65.19
20656;BME280;10487;53.320;8.672;2022-12-05T06:21:20;101660.88;;;3.17;65.03
20656;BME280;10487;53.320;8.672;2022-12-05T06:24:21;101661.75;;;3.16;65.17
20656;BME280;10487;53.320;8.672;2022-12-05T06:27:23;101660.00;;;3.17;65.25
20656;BME280;10487;53.320;8.672;2022-12-05T06:30:25;101665.25;;;3.17;65.05
20656;BME280;10487;53.320;8.672;2022-12-05T06:33:27;101664.41;;;3.16;65.37
20656;BME280;10487;53.320;8.672;2022-12-05T06:36:29;101667.00;;;3.18;65.26
20656;BME280;10487;53.320;8.672;2022-12-05T06:39:31;101669.03;;;3.39;65.73
20656;BME280;10487;53.320;8.672;2022-12-05T06:42:32;101667.78;;;3.52;65.29
20656;BME280;10487;53.320;8.672;2022-12-05T06:45:36;101673.94;;;3.51;65.04
20656;BME280;10487;53.320;8.672;2022-12-05T06:48:38;101674.91;;;3.48;65.14
20656;BME280;10487;53.320;8.672;2022-12-05T06:51:40;101672.31;;;3.47;65.05
20656;BME280;10487;53.320;8.672;2022-12-05T06:54:41;101668.06;;;3.43;64.95
20656;BME280;10487;53.320;8.672;2022-12-05T06:57:44;101677.78;;;3.41;64.97
20656;BME280;10487;53.320;8.672;2022-12-05T07:00:45;101679.59;;;3.39;65.10
20656;BME280;10487;53.320;8.672;2022-12-05T07:04:17;101674.38;;;3.37;64.90
20656;BME280;10487;53.320;8.672;2022-12-05T07:07:21;101677.75;;;3.42;65.04
20656;BME280;10487;53.320;8.672;2022-12-05T07:10:22;101673.34;;;3.43;65.08
20656;BME280;10487;53.320;8.672;2022-12-05T07:13:24;101676.00;;;3.41;64.99
20656;BME280;10487;53.320;8.672;2022-12-05T07:16:25;101669.03;;;3.40;65.10
20656;BME280;10487;53.320;8.672;2022-12-05T07:19:27;101670.84;;;3.38;65.10
20656;BME280;10487;53.320;8.672;2022-12-05T07:22:29;101671.78;;;3.36;65.15
20656;BME280;10487;53.320;8.672;2022-12-05T07:25:30;101668.31;;;3.34;64.83
20656;BME280;10487;53.320;8.672;2022-12-05T07:28:33;101664.00;;;3.31;65.16
20656;BME280;10487;53.320;8.672;2022-12-05T07:31:34;101663.19;;;3.29;65.02
20656;BME280;10487;53.320;8.672;2022-12-05T07:34:37;101661.47;;;3.28;65.29
20656;BME280;10487;53.320;8.672;2022-12-05T07:37:39;101662.84;;;3.69;66.36
20656;BME280;10487;53.320;8.672;2022-12-05T07:40:40;101653.66;;;3.82;65.58
20656;BME280;10487;53.320;8.672;2022-12-05T07:43:42;101653.78;;;3.78;65.21
20656;BME280;10487;53.320;8.672;2022-12-05T07:46:43;101656.69;;;3.69;65.09
20656;BME280;10487;53.320;8.672;2022-12-05T07:49:45;101665.78;;;3.60;65.31
20656;BME280;10487;53.320;8.672;2022-12-05T07:52:47;101666.88;;;3.53;65.07
20656;BME280;10487;53.320;8.672;2022-12-05T07:55:48;101662.66;;;3.46;65.31
20656;BME280;10487;53.320;8.672;2022-12-05T07:58:50;101672.56;;;3.39;65.16
20656;BME280;10487;53.320;8.672;2022-12-05T08:01:52;101663.00;;;3.35;65.21
20656;BME280;10487;53.320;8.672;2022-12-05T08:04:54;101662.22;;;3.32;65.52
20656;BME280;10487;53.320;8.672;2022-12-05T08:07:55;101670.22;;;3.29;65.44
20656;BME280;10487;53.320;8.672;2022-12-05T08:11:06;101670.31;;;3.26;65.27
20656;BME280;10487;53.320;8.672;2022-12-05T08:14:08;101666.81;;;3.24;65.50
20656;BME280;10487;53.320;8.672;2022-12-05T08:17:11;101669.63;;;3.48;66.12
20656;BME280;10487;53.320;8.672;2022-12-05T08:20:13;101670.34;;;3.54;65.79
20656;BME280;10487;53.320;8.672;2022-12-05T08:23:14;101673.13;;;3.49;65.41
20656;BME280;10487;53.320;8.672;2022-12-05T08:26:20;101668.97;;;3.42;65.46
20656;BME280;10487;53.320;8.672;2022-12-05T08:29:22;101674.38;;;3.37;65.48
20656;BME280;10487;53.320;8.672;2022-12-05T08:32:24;101681.63;;;3.31;65.21
20656;BME280;10487;53.320;8.672;2022-12-05T08:35:25;101681.75;;;3.25;65.36
20656;BME280;10487;53.320;8.672;2022-12-05T08:38:27;101680.06;;;3.22;65.56
20656;BME280;10487;53.320;8.672;2022-12-05T08:41:29;101680.13;;;3.19;65.50
20656;BME280;10487;53.320;8.672;2022-12-05T08:44:31;101679.38;;;3.16;65.67
20656;BME280;10487;53.320;8.672;2022-12-05T08:47:32;101680.28;;;3.15;65.54
20656;BME280;10487;53.320;8.672;2022-12-05T08:50:37;101689.09;;;3.14;65.51
20656;BME280;10487;53.320;8.672;2022-12-05T08:53:39;101689.09;;;3.14;65.83
20656;BME280;10487;53.320;8.672;2022-12-05T08:56:45;101688.28;;;3.12;65.64
20656;BME280;10487;53.320;8.672;2022-12-05T08:59:46;101688.28;;;3.12;65.71
20656;BME280;10487;53.320;8.672;2022-12-05T09:02:49;101692.66;;;3.11;65.39
20656;BME280;10487;53.320;8.672;2022-12-05T09:05:52;101698.88;;;3.10;65.74
20656;BME280;10487;53.320;8.672;2022-12-05T09:09:00;101694.50;;;3.09;65.57
20656;BME280;10487;53.320;8.672;2022-12-05T09:12:03;101692.78;;;3.08;65.71
20656;BME280;10487;53.320;8.672;2022-12-05T09:15:05;101691.91;;;3.08;65.55
20656;BME280;10487;53.320;8.672;2022-12-05T09:18:07;101687.50;;;3.08;65.71
20656;BME280;10487;53.320;8.672;2022-12-05T09:21:14;101685.72;;;3.09;65.65
20656;BME280;10487;53.320;8.672;2022-12-05T09:24:15;101684.00;;;3.08;65.67
20656;BME280;10487;53.320;8.672;2022-12-05T09:27:17;101684.00;;;3.08;65.68
20656;BME280;10487;53.320;8.672;2022-12-05T09:30:19;101682.22;;;3.08;65.81
20656;BME280;10487;53.320;8.672;2022-12-05T09:33:20;101688.34;;;3.09;65.52
20656;BME280;10487;53.320;8.672;2022-12-05T09:36:27;101694.50;;;3.09;65.69
20656;BME280;10487;53.320;8.672;2022-12-05T09:39:29;101690.09;;;3.10;65.64
20656;BME280;10487;53.320;8.672;2022-12-05T09:42:40;101690.97;;;3.10;65.49
20656;BME280;10487;53.320;8.672;2022-12-05T09:45:53;101683.00;;;3.12;65.68
20656;BME280;10487;53.320;8.672;2022-12-05T09:48:58;101691.84;;;3.11;65.55
20656;BME280;10487;53.320;8.672;2022-12-05T09:52:00;101691.78;;;3.12;65.74
20656;BME280;10487;53.320;8.672;2022-12-05T09:55:18;101693.53;;;3.12;65.59
20656;BME280;10487;53.320;8.672;2022-12-05T10:05:23;101690.78;;;4.32;66.49
20656;BME280;10487;53.320;8.672;2022-12-05T10:08:32;101683.97;;;4.25;65.70
20656;BME280;10487;53.320;8.672;2022-12-05T10:11:46;101681.00;;;4.07;65.47
20656;BME280;10487;53.320;8.672;2022-12-05T10:21:56;101688.91;;;3.52;65.54
20656;BME280;10487;53.320;8.672;2022-12-05T10:25:02;101680.41;;;3.41;65.62
20656;BME280;10487;53.320;8.672;2022-12-05T10:28:17;101685.09;;;3.31;65.55
20656;BME280;10487;53.320;8.672;2022-12-05T10:31:29;101678.31;;;3.21;65.50
20656;BME280;10487;53.320;8.672;2022-12-05T10:34:37;101679.47;;;3.11;65.57
20656;BME280;10487;53.320;8.672;2022-12-05T10:37:42;101675.34;;;3.03;65.59
20656;BME280;10487;53.320;8.672;2022-12-05T10:40:50;101683.41;;;2.97;65.84
20656;BME280;10487;53.320;8.672;2022-12-05T10:43:55;101676.56;;;2.91;65.65
20656;BME280;10487;53.320;8.672;2022-12-05T10:46:58;101674.94;;;2.86;65.60
20656;BME280;10487;53.320;8.672;2022-12-05T10:50:06;101681.19;;;2.81;65.74
20656;BME280;10487;53.320;8.672;2022-12-05T10:53:15;101678.31;;;2.91;66.60
20656;BME280;10487;53.320;8.672;2022-12-05T10:59:46;101678.06;;;3.00;65.89
20656;BME280;10487;53.320;8.672;2022-12-05T11:02:49;101670.38;;;2.92;65.89
20656;BME280;10487;53.320;8.672;2022-12-05T11:05:54;101668.75;;;2.87;65.74
20656;BME280;10487;53.320;8.672;2022-12-05T11:09:02;101667.13;;;2.82;65.67
20656;BME280;10487;53.320;8.672;2022-12-05T11:12:26;101669.75;;;2.82;65.67
20656;BME280;10487;53.320;8.672;2022-12-05T11:15:29;101664.56;;;2.79;65.98
20656;BME280;10487;53.320;8.672;2022-12-05T11:18:32;101661.97;;;2.78;65.83
20656;BME280;10487;53.320;8.672;2022-12-05T11:21:41;101670.78;;;2.77;65.80
20656;BME280;10487;53.320;8.672;2022-12-05T11:24:43;101661.19;;;2.74;65.92
20656;BME280;10487;53.320;8.672;2022-12-05T11:27:45;101660.38;;;2.72;65.77
20656;BME280;10487;53.320;8.672;2022-12-05T11:34:18;101656.97;;;2.67;65.66
20656;BME280;10487;53.320;8.672;2022-12-05T11:37:28;101656.22;;;2.64;65.76
20656;BME280;10487;53.320;8.672;2022-12-05T11:50:30;101644.47;;;2.43;65.55
20656;BME280;10487;53.320;8.672;2022-12-05T11:56:59;101641.13;;;2.37;65.62
20656;BME280;10487;53.320;8.672;2022-12-05T12:38:05;101641.31;;;1.94;65.82
20656;BME280;10487;53.320;8.672;2022-12-05T12:41:25;101645.84;;;1.87;65.96
20656;BME280;10487;53.320;8.672;2022-12-05T12:44:58;101639.81;;;1.82;66.09
20656;BME280;10487;53.320;8.672;2022-12-05T12:51:23;101636.47;;;1.77;66.12
20656;BME280;10487;53.320;8.672;2022-12-05T13:04:58;101636.59;;;1.71;66.06
20656;BME280;10487;53.320;8.672;2022-12-05T13:08:18;101631.03;;;1.83;66.83
20656;BME280;10487;53.320;8.672;2022-12-05T13:11:21;101627.47;;;2.21;66.57
20656;BME280;10487;53.320;8.672;2022-12-05T13:14:24;101633.50;;;2.25;66.21
20656;BME280;10487;53.320;8.672;2022-12-05T13:17:29;101633.69;;;2.18;65.70
20656;BME280;10487;53.320;8.672;2022-12-05T13:20:33;101626.84;;;2.11;65.90
20656;BME280;10487;53.320;8.672;2022-12-05T13:23:44;101620.63;;;2.14;66.11
20656;BME280;10487;53.320;8.672;2022-12-05T13:26:47;101618.13;;;2.09;66.03
20656;BME280;10487;53.320;8.672;2022-12-05T13:29:56;101621.78;;;2.04;66.06
20656;BME280;10487;53.320;8.672;2022-12-05T13:33:08;101618.34;;;2.00;66.00
20656;BME280;10487;53.320;8.672;2022-12-05T13:36:15;101619.31;;;1.96;65.87
20656;BME280;10487;53.320;8.672;2022-12-05T13:39:37;101618.50;;;1.93;65.68
20656;BME280;10487;53.320;8.672;2022-12-05T13:43:02;101625.59;;;1.91;66.11
20656;BME280;10487;53.320;8.672;2022-12-05T13:46:08;101622.13;;;1.89;66.09
20656;BME280;10487;53.320;8.672;2022-12-05T13:49:26;101626.53;;;1.88;65.86
20656;BME280;10487;53.320;8.672;2022-12-05T13:52:31;101628.34;;;1.86;65.72
20656;BME280;10487;53.320;8.672;2022-12-05T13:55:57;101632.78;;;1.84;65.69
20656;BME280;10487;53.320;8.672;2022-12-05T13:59:00;101633.72;;;1.82;65.93
20656;BME280;10487;53.320;8.672;2022-12-05T14:02:01;101637.25;;;1.81;66.10
20656;BME280;10487;53.320;8.672;2022-12-05T14:11:36;101632.13;;;1.75;65.78
20656;BME280;10487;53.320;8.672;2022-12-05T14:21:13;101639.28;;;1.70;66.02
20656;BME280;10487;53.320;8.672;2022-12-05T14:24:34;101635.78;;;1.68;66.13
20656;BME280;10487;53.320;8.672;2022-12-05T14:41:32;101640.50;;;1.53;65.70
20656;BME280;10487;53.320;8.672;2022-12-05T14:44:35;101645.75;;;1.53;66.06
20656;BME280;10487;53.320;8.672;2022-12-05T14:47:37;101640.53;;;1.52;66.03
20656;BME280;10487;53.320;8.672;2022-12-05T14:50:45;101640.53;;;1.52;66.09
20656;BME280;10487;53.320;8.672;2022-12-05T14:53:48;101646.66;;;1.52;65.89
20656;BME280;10487;53.320;8.672;2022-12-05T14:56:54;101640.44;;;1.55;66.01
20656;BME280;10487;53.320;8.672;2022-12-05T15:00:05;101648.31;;;1.57;66.13
20656;BME280;10487;53.320;8.672;2022-12-05T15:03:18;101650.91;;;1.60;65.79
20656;BME280;10487;53.320;8.672;2022-12-05T15:06:22;101651.72;;;1.62;66.16
20656;BME280;10487;53.320;8.672;2022-12-05T15:12:48;101638.88;;;1.85;65.52
20656;BME280;10487;53.320;8.672;2022-12-05T15:16:13;101643.38;;;1.81;65.78
20656;BME280;10487;53.320;8.672;2022-12-05T15:19:20;101651.44;;;1.74;65.58
20656;BME280;10487;53.320;8.672;2022-12-05T15:22:25;101652.97;;;1.82;66.50
20656;BME280;10487;53.320;8.672;2022-12-05T15:25:30;101651.38;;;2.12;66.70
20656;BME280;10487;53.320;8.672;2022-12-05T15:28:32;101654.00;;;2.13;66.00
20656;BME280;10487;53.320;8.672;2022-12-05T15:31:38;101649.75;;;2.08;65.46
20656;BME280;10487;53.320;8.672;2022-12-05T15:38:10;101658.06;;;1.90;65.57
20656;BME280;10487;53.320;8.672;2022-12-05T15:41:16;101668.69;;;1.87;65.77
20656;BME280;10487;53.320;8.672;2022-12-05T15:44:19;101658.22;;;1.84;65.62
20656;BME280;10487;53.320;8.672;2022-12-05T15:47:27;101662.50;;;1.88;65.92
20656;BME280;10487;53.320;8.672;2022-12-05T15:53:43;101655.53;;;1.85;65.86
20656;BME280;10487;53.320;8.672;2022-12-05T15:56:56;101661.63;;;1.89;66.04
20656;BME280;10487;53.320;8.672;2022-12-05T16:00:02;101665.00;;;1.94;65.76
20656;BME280;10487;53.320;8.672;2022-12-05T16:06:26;101657.72;;;2.05;66.11
20656;BME280;10487;53.320;8.672;2022-12-05T16:09:31;101673.56;;;2.39;66.51
20656;BME280;10487;53.320;8.672;2022-12-05T16:12:38;101673.31;;;2.48;65.89
20656;BME280;10487;53.320;8.672;2022-12-05T16:15:48;101673.25;;;2.51;65.65
20656;BME280;10487;53.320;8.672;2022-12-05T16:19:15;101667.97;;;2.51;65.38
20656;BME280;10487;53.320;8.672;2022-12-05T16:22:21;101668.84;;;2.51;65.49
20656;BME280;10487;53.320;8.672;2022-12-05T16:25:29;101667.09;;;2.50;65.60
20656;BME280;10487;53.320;8.672;2022-12-05T16:28:32;101667.25;;;2.44;65.30
20656;BME280;10487;53.320;8.672;2022-12-05T16:31:34;101669.97;;;2.41;65.27
20656;BME280;10487;53.320;8.672;2022-12-05T16:34:36;101670.88;;;2.40;65.33
20656;BME280;10487;53.320;8.672;2022-12-05T16:37:38;101667.28;;;2.43;65.52
20656;BME280;10487;53.320;8.672;2022-12-05T16:40:50;101674.31;;;2.44;65.39
20656;BME280;10487;53.320;8.672;2022-12-05T16:43:52;101676.03;;;2.45;65.28
20656;BME280;10487;53.320;8.672;2022-12-05T16:46:54;101680.34;;;2.47;65.52
20656;BME280;10487;53.320;8.672;2022-12-05T16:49:56;101675.91;;;2.49;65.40
20656;BME280;10487;53.320;8.672;2022-12-05T16:53:13;101671.50;;;2.50;65.36
20656;BME280;10487;53.320;8.672;2022-12-05T16:56:26;101669.66;;;2.53;65.35
20656;BME280;10487;53.320;8.672;2022-12-05T16:59:32;101673.16;;;2.54;65.09
20656;BME280;10487;53.320;8.672;2022-12-05T17:02:35;101675.69;;;2.57;65.21
20656;BME280;10487;53.320;8.672;2022-12-05T17:05:36;101673.91;;;2.59;65.14
20656;BME280;10487;53.320;8.672;2022-12-05T17:08:38;101672.09;;;2.61;64.95
20656;BME280;10487;53.320;8.672;2022-12-05T17:11:42;101674.75;;;2.61;65.06
20656;BME280;10487;53.320;8.672;2022-12-05T17:14:45;101668.59;;;2.60;64.89
20656;BME280;10487;53.320;8.672;2022-12-05T17:17:47;101672.09;;;2.61;65.10
20656;BME280;10487;53.320;8.672;2022-12-05T17:20:53;101673.00;;;2.60;65.09
20656;BME280;10487;53.320;8.672;2022-12-05T17:23:56;101670.41;;;2.58;65.14
20656;BME280;10487;53.320;8.672;2022-12-05T17:26:58;101667.78;;;2.58;64.90
20656;BME280;10487;53.320;8.672;2022-12-05T17:30:00;101678.25;;;2.60;64.97
20656;BME280;10487;53.320;8.672;2022-12-05T17:33:02;101675.59;;;2.61;65.11
20656;BME280;10487;53.320;8.672;2022-12-05T17:36:04;101675.59;;;2.61;65.10
20656;BME280;10487;53.320;8.672;2022-12-05T17:39:05;101674.75;;;2.61;64.89
20656;BME280;10487;53.320;8.672;2022-12-05T17:42:08;101681.66;;;2.65;64.90
20656;BME280;10487;53.320;8.672;2022-12-05T17:45:12;101677.25;;;2.65;64.76
20656;BME280;10487;53.320;8.672;2022-12-05T17:48:14;101683.38;;;2.66;65.01
20656;BME280;10487;53.320;8.672;2022-12-05T17:51:16;101685.16;;;2.65;65.01
20656;BME280;10487;53.320;8.672;2022-12-05T17:54:18;101679.88;;;2.65;65.02
20656;BME280;10487;53.320;8.672;2022-12-05T17:57:20;101682.47;;;2.67;64.97
20656;BME280;10487;53.320;8.672;2022-12-05T18:00:22;101683.38;;;2.66;64.86
20656;BME280;10487;53.320;8.672;2022-12-05T18:03:25;101687.72;;;2.67;64.83
20656;BME280;10487;53.320;8.672;2022-12-05T18:06:27;101693.88;;;2.67;64.91
20656;BME280;10487;53.320;8.672;2022-12-05T18:09:29;101691.25;;;2.67;64.83
20656;BME280;10487;53.320;8.672;2022-12-05T18:12:31;101699.19;;;2.66;64.76
20656;BME280;10487;53.320;8.672;2022-12-05T18:15:33;101698.28;;;2.67;64.78
20656;BME280;10487;53.320;8.672;2022-12-05T18:18:42;101697.44;;;2.66;64.85
20656;BME280;10487;53.320;8.672;2022-12-05T18:21:44;101696.56;;;2.66;64.83
20656;BME280;10487;53.320;8.672;2022-12-05T18:24:46;101693.84;;;2.69;64.96
20656;BME280;10487;53.320;8.672;2022-12-05T18:27:48;101692.06;;;2.69;64.84
20656;BME280;10487;53.320;8.672;2022-12-05T18:30:49;101696.44;;;2.70;64.72
20656;BME280;10487;53.320;8.672;2022-12-05T18:33:51;101705.16;;;2.72;64.78
20656;BME280;10487;53.320;8.672;2022-12-05T18:36:52;101691.00;;;2.76;64.93
20656;BME280;10487;53.320;8.672;2022-12-05T18:39:55;101688.28;;;2.79;64.73
20656;BME280;10487;53.320;8.672;2022-12-05T18:42:57;101702.25;;;2.83;64.95
20656;BME280;10487;53.320;8.672;2022-12-05T18:46:00;101696.94;;;2.84;64.66
20656;BME280;10487;53.320;8.672;2022-12-05T18:49:03;101703.03;;;2.87;64.79
20656;BME280;10487;53.320;8.672;2022-12-05T18:52:05;101703.81;;;2.90;64.77
20656;BME280;10487;53.320;8.672;2022-12-05T18:55:06;101698.50;;;2.92;65.01
20656;BME280;10487;53.320;8.672;2022-12-05T18:58:17;101703.75;;;2.93;64.60
20656;BME280;10487;53.320;8.672;2022-12-05T19:01:19;101700.16;;;2.96;64.69
20656;BME280;10487;53.320;8.672;2022-12-05T19:04:21;101696.66;;;2.95;64.87
20656;BME280;10487;53.320;8.672;2022-12-05T19:07:23;101702.78;;;2.96;64.80